createdAt,value
2018-07-16T00:01:11.279Z,99.90
2018-07-16T00:03:43.491Z,99.90
2018-07-16T00:06:14.065Z,99.90
2018-07-16T00:08:44.544Z,99.90
2018-07-16T00:11:15.084Z,99.90
2018-07-16T00:13:45.699Z,99.90
2018-07-16T00:16:16.219Z,99.90
2018-07-16T00:18:46.697Z,99.90
2018-07-16T00:21:17.669Z,99.90
2018-07-16T00:23:49.093Z,99.90
2018-07-16T00:26:19.631Z,99.90
2018-07-16T00:28:50.295Z,99.90
2018-07-16T00:31:20.758Z,99.90
2018-07-16T00:33:51.406Z,99.90
2018-07-16T00:36:21.947Z,99.90
2018-07-16T00:38:52.586Z,99.90
2018-07-16T00:41:24.608Z,99.90
2018-07-16T00:43:55.925Z,99.90
2018-07-16T00:46:26.496Z,99.90
2018-07-16T00:48:56.883Z,99.90
2018-07-16T00:51:27.426Z,99.90
2018-07-16T00:53:57.810Z,99.90
2018-07-16T00:56:28.638Z,99.90
2018-07-16T00:58:59.553Z,99.90
2018-07-16T01:01:30.822Z,99.90
2018-07-16T01:04:01.322Z,99.90
2018-07-16T01:06:32.000Z,99.90
2018-07-16T01:09:02.776Z,99.90
2018-07-16T01:11:33.322Z,99.90
2018-07-16T01:14:03.863Z,99.90
2018-07-16T01:16:34.332Z,99.90
2018-07-16T01:19:05.421Z,99.90
2018-07-16T01:21:36.738Z,99.90
2018-07-16T01:24:07.280Z,99.90
2018-07-16T01:26:37.717Z,99.90
2018-07-16T01:29:08.224Z,99.90
2018-07-16T01:31:38.764Z,99.90
2018-07-16T01:34:09.610Z,99.90
2018-07-16T01:36:40.077Z,99.90
2018-07-16T01:39:12.012Z,99.90
2018-07-16T01:41:42.937Z,99.90
2018-07-16T01:46:43.545Z,99.90
2018-07-16T01:49:13.997Z,99.90
2018-07-16T01:51:44.588Z,99.90
2018-07-16T01:54:15.010Z,99.90
2018-07-16T01:56:45.581Z,99.90
2018-07-16T01:59:17.682Z,99.90
2018-07-16T02:01:48.462Z,99.90
2018-07-16T02:04:19.437Z,99.90
2018-07-16T02:06:50.017Z,99.90
2018-07-16T02:09:21.517Z,99.90
2018-07-16T02:11:52.019Z,99.90
2018-07-16T02:14:22.662Z,99.90
2018-07-16T02:16:53.595Z,99.90
2018-07-16T02:19:24.860Z,99.90
2018-07-16T02:21:55.313Z,99.90
2018-07-16T02:24:25.932Z,99.90
2018-07-16T02:26:56.819Z,99.90
2018-07-16T02:29:27.513Z,99.90
2018-07-16T02:31:58.186Z,99.90
2018-07-16T02:34:28.718Z,99.90
2018-07-16T02:36:59.759Z,99.90
2018-07-16T02:39:30.733Z,99.90
2018-07-16T02:42:01.447Z,99.90
2018-07-16T02:44:32.058Z,99.90
2018-07-16T02:47:02.637Z,99.90
2018-07-16T02:49:33.130Z,99.90
2018-07-16T02:52:03.710Z,99.90
2018-07-16T02:54:34.514Z,99.90
2018-07-16T02:57:05.750Z,99.90
2018-07-16T03:02:06.497Z,99.90
2018-07-16T03:04:37.000Z,99.90
2018-07-16T03:07:08.078Z,99.90
2018-07-16T03:09:38.589Z,99.90
2018-07-16T03:12:09.309Z,99.90
2018-07-16T03:14:40.113Z,99.90
2018-07-16T03:17:12.064Z,99.90
2018-07-16T03:19:42.727Z,99.90
2018-07-16T03:22:13.265Z,99.90
2018-07-16T03:24:44.174Z,99.90
2018-07-16T03:27:14.731Z,99.90
2018-07-16T03:29:45.982Z,99.90
2018-07-16T03:32:16.611Z,99.90
2018-07-16T03:34:48.005Z,99.90
2018-07-16T03:37:18.904Z,99.90
2018-07-16T03:39:49.626Z,99.90
2018-07-16T03:42:20.127Z,99.90
2018-07-16T03:44:50.796Z,99.90
2018-07-16T03:49:51.469Z,99.90
2018-07-16T03:54:52.768Z,99.90
2018-07-16T03:57:23.939Z,99.90
2018-07-16T03:59:55.298Z,99.90
2018-07-16T04:04:56.834Z,99.90
2018-07-16T04:07:27.403Z,99.90
2018-07-16T04:09:58.106Z,99.90
2018-07-16T04:12:29.480Z,99.90
2018-07-16T04:20:01.389Z,99.90
2018-07-16T04:22:31.869Z,99.90
2018-07-16T04:25:02.457Z,99.90
2018-07-16T04:27:32.907Z,99.90
2018-07-16T04:30:04.111Z,99.90
2018-07-16T04:32:35.589Z,99.90
2018-07-16T04:35:06.120Z,99.90
2018-07-16T04:37:36.772Z,99.90
2018-07-16T04:40:07.294Z,99.90
2018-07-16T04:42:37.921Z,99.90
2018-07-16T04:47:38.505Z,99.90
2018-07-16T04:50:09.346Z,99.90
2018-07-16T04:52:40.599Z,99.90
2018-07-16T04:55:11.311Z,99.90
2018-07-16T04:57:41.665Z,99.90
2018-07-16T05:00:12.298Z,99.90
2018-07-16T05:02:42.763Z,99.90
2018-07-16T05:05:13.390Z,99.90
2018-07-16T05:07:43.798Z,99.90
2018-07-16T05:10:15.017Z,99.90
2018-07-16T05:12:46.656Z,99.90
2018-07-16T05:15:17.335Z,99.90
2018-07-16T05:17:47.841Z,99.90
2018-07-16T05:20:18.549Z,99.90
2018-07-16T05:22:48.970Z,99.90
2018-07-16T05:25:19.612Z,99.90
2018-07-16T05:30:21.263Z,99.90
2018-07-16T05:32:51.798Z,99.90
2018-07-16T05:35:22.725Z,99.90
2018-07-16T05:37:53.335Z,99.90
2018-07-16T05:40:24.972Z,99.90
2018-07-16T05:42:56.223Z,99.90
2018-07-16T05:47:57.140Z,99.90
2018-07-16T05:50:27.869Z,99.90
2018-07-16T05:52:58.561Z,99.90
2018-07-16T05:55:29.186Z,99.90
2018-07-16T05:58:00.342Z,99.90
2018-07-16T06:00:31.931Z,99.90
2018-07-16T06:03:02.826Z,99.90
2018-07-16T06:05:38.007Z,99.90
2018-07-16T06:08:08.975Z,99.90
2018-07-16T06:10:39.363Z,99.90
2018-07-16T06:13:09.851Z,99.90
2018-07-16T06:15:40.531Z,99.90
2018-07-16T06:18:13.717Z,99.90
2018-07-16T06:20:45.181Z,99.90
2018-07-16T06:23:15.636Z,99.90
2018-07-16T06:28:16.777Z,99.90
2018-07-16T06:30:47.427Z,99.90
2018-07-16T06:33:18.080Z,99.90
2018-07-16T06:35:48.626Z,99.90
2018-07-16T06:38:20.576Z,99.90
2018-07-16T06:40:51.765Z,99.60
2018-07-16T06:43:22.178Z,99.90
2018-07-16T06:45:52.681Z,99.90
2018-07-16T06:48:23.129Z,99.60
2018-07-16T06:50:53.974Z,99.90
2018-07-16T06:53:24.673Z,98.90
2018-07-16T06:55:55.677Z,98.20
2018-07-16T06:58:27.500Z,98.30
2018-07-16T07:00:58.064Z,98.10
2018-07-16T07:05:59.108Z,97.90
2018-07-16T07:08:29.730Z,96.70
2018-07-16T07:11:00.373Z,96.00
2018-07-16T07:13:31.042Z,95.70
2018-07-16T07:16:02.767Z,95.70
2018-07-16T07:18:34.046Z,95.50
2018-07-16T07:21:04.790Z,95.80
2018-07-16T07:23:35.457Z,94.80
2018-07-16T07:26:06.786Z,94.40
2018-07-16T07:28:37.474Z,93.50
2018-07-16T07:31:08.882Z,92.30
2018-07-16T07:33:39.417Z,91.30
2018-07-16T07:36:11.111Z,91.50
2018-07-16T07:38:41.967Z,91.90
2018-07-16T07:41:12.753Z,92.50
2018-07-16T07:43:43.522Z,92.40
2018-07-16T07:46:14.441Z,91.60
2018-07-16T07:48:52.167Z,91.60
2018-07-16T07:51:24.062Z,90.80
2018-07-16T07:53:55.673Z,89.10
2018-07-16T07:56:27.448Z,87.90
2018-07-16T07:58:58.617Z,87.90
2018-07-16T08:01:29.496Z,86.30
2018-07-16T08:04:00.149Z,84.40
2018-07-16T08:06:30.852Z,84.20
2018-07-16T08:09:02.839Z,83.20
2018-07-16T08:11:34.304Z,80.60
2018-07-16T08:14:05.063Z,77.90
2018-07-16T08:16:35.867Z,77.90
2018-07-16T08:19:06.776Z,79.40
2018-07-16T08:21:37.705Z,78.10
2018-07-16T08:24:08.965Z,78.10
2018-07-16T08:26:40.323Z,78.00
2018-07-16T08:29:12.150Z,79.10
2018-07-16T08:31:42.878Z,79.20
2018-07-16T08:34:13.789Z,78.20
2018-07-16T08:36:44.752Z,78.30
2018-07-16T08:39:16.049Z,80.80
2018-07-16T08:41:46.814Z,82.40
2018-07-16T08:44:18.367Z,84.50
2018-07-16T08:46:49.772Z,85.80
2018-07-16T08:49:21.234Z,83.70
2018-07-16T08:51:52.231Z,84.80
2018-07-16T08:54:23.555Z,85.70
2018-07-16T08:56:54.606Z,84.70
2018-07-16T08:59:26.146Z,81.50
2018-07-16T09:01:58.303Z,80.30
2018-07-16T09:04:29.458Z,76.60
2018-07-16T09:07:00.480Z,73.60
2018-07-16T09:09:31.495Z,76.80
2018-07-16T09:12:02.103Z,74.80
2018-07-16T09:14:32.897Z,74.20
2018-07-16T09:17:05.053Z,79.10
2018-07-16T09:19:36.356Z,79.80
2018-07-16T09:22:07.146Z,81.20
2018-07-16T09:24:37.721Z,79.60
2018-07-16T09:29:39.064Z,82.30
2018-07-16T09:32:10.801Z,84.10
2018-07-16T09:34:41.290Z,83.30
2018-07-16T09:37:13.449Z,83.80
2018-07-16T09:39:45.351Z,82.30
2018-07-16T09:42:16.022Z,82.20
2018-07-16T09:44:47.179Z,84.30
2018-07-16T09:47:18.056Z,85.00
2018-07-16T09:49:49.372Z,86.20
2018-07-16T09:52:20.026Z,88.60
2018-07-16T09:55:03.942Z,87.80
2018-07-16T09:57:36.154Z,87.10
2018-07-16T10:00:07.867Z,87.80
2018-07-16T10:02:39.176Z,87.40
2018-07-16T10:07:43.645Z,87.40
2018-07-16T10:10:15.045Z,89.00
2018-07-16T10:12:46.101Z,91.00
2018-07-16T10:15:16.869Z,90.50
2018-07-16T10:17:47.577Z,90.90
2018-07-16T10:20:18.910Z,90.00
2018-07-16T10:23:13.537Z,90.70
2018-07-16T10:25:44.718Z,90.90
2018-07-16T10:28:15.996Z,90.60
2018-07-16T10:30:49.441Z,90.70
2018-07-16T10:33:35.047Z,92.00
2018-07-16T10:36:05.816Z,92.20
2018-07-16T10:41:10.981Z,93.00
2018-07-16T10:43:44.103Z,94.40
2018-07-16T10:46:15.891Z,95.40
2018-07-16T10:48:46.882Z,95.50
2018-07-16T10:51:18.048Z,96.10
2018-07-16T10:53:49.553Z,96.60
2018-07-16T10:58:51.909Z,97.20
2018-07-16T11:03:54.577Z,98.00
2018-07-16T11:06:26.212Z,98.70
2018-07-16T11:08:57.619Z,98.90
2018-07-16T11:11:28.413Z,99.40
2018-07-16T11:13:59.099Z,99.30
2018-07-16T11:18:59.798Z,99.90
2018-07-16T11:21:31.491Z,99.90
2018-07-16T11:24:03.958Z,99.90
2018-07-16T11:26:34.842Z,99.90
2018-07-16T11:29:06.003Z,99.90
2018-07-16T11:31:36.481Z,99.90
2018-07-16T11:34:07.261Z,99.90
2018-07-16T11:39:09.572Z,99.90
2018-07-16T11:41:40.489Z,99.90
2018-07-16T11:44:12.315Z,99.90
2018-07-16T11:46:43.045Z,99.90
2018-07-16T11:49:14.013Z,99.90
2018-07-16T11:51:44.897Z,99.90
2018-07-16T11:54:17.108Z,99.90
2018-07-16T11:56:48.486Z,99.90
2018-07-16T11:59:19.162Z,99.90
2018-07-16T12:01:51.101Z,99.90
2018-07-16T12:04:22.080Z,99.90
2018-07-16T12:06:53.508Z,99.90
2018-07-16T12:09:24.207Z,99.90
2018-07-16T12:11:56.175Z,99.90
2018-07-16T12:14:26.906Z,99.90
2018-07-16T12:17:01.796Z,99.90
2018-07-16T12:19:36.345Z,99.90
2018-07-16T12:22:09.116Z,98.70
2018-07-16T12:24:41.606Z,98.00
2018-07-16T12:27:13.799Z,97.70
2018-07-16T12:29:44.940Z,98.00
2018-07-16T12:32:17.859Z,98.30
2018-07-16T12:34:51.138Z,99.60
2018-07-16T12:37:24.937Z,99.70
2018-07-16T12:39:57.332Z,99.70
2018-07-16T12:42:30.566Z,99.50
2018-07-16T12:45:03.648Z,98.90
2018-07-16T12:47:36.498Z,98.20
2018-07-16T12:50:09.565Z,95.70
2018-07-16T12:55:15.900Z,95.60
2018-07-16T12:57:47.730Z,95.40
2018-07-16T13:00:18.832Z,94.30
2018-07-16T13:02:50.642Z,94.00
2018-07-16T13:05:21.735Z,93.90
2018-07-16T13:07:53.610Z,94.30
2018-07-16T13:10:24.273Z,93.30
2018-07-16T13:12:55.971Z,93.50
2018-07-16T13:15:30.118Z,93.90
2018-07-16T13:18:01.645Z,93.40
2018-07-16T13:20:33.692Z,93.90
2018-07-16T13:23:04.328Z,92.00
2018-07-16T13:25:36.400Z,92.30
2018-07-16T13:28:07.332Z,91.80
2018-07-16T13:30:38.194Z,91.90
2018-07-16T13:35:39.527Z,91.50
2018-07-16T13:38:11.402Z,91.70
2018-07-16T13:40:42.415Z,92.10
2018-07-16T13:43:13.951Z,92.50
2018-07-16T13:45:45.002Z,92.90
2018-07-16T13:48:15.795Z,93.50
2018-07-16T13:50:47.633Z,94.80
2018-07-16T13:53:18.666Z,95.80
2018-07-16T13:55:50.584Z,96.60
2018-07-16T13:58:21.766Z,97.20
2018-07-16T14:00:53.249Z,97.80
2018-07-16T14:03:24.441Z,98.50
2018-07-16T14:05:55.723Z,98.40
2018-07-16T14:08:26.861Z,98.40
2018-07-16T14:10:57.639Z,98.70
2018-07-16T14:13:29.218Z,98.40
2018-07-16T14:16:00.779Z,98.70
2018-07-16T14:18:31.951Z,99.20
2018-07-16T14:21:05.067Z,99.60
2018-07-16T14:23:36.157Z,99.70
2018-07-16T14:26:07.956Z,99.50
2018-07-16T14:28:39.016Z,99.90
2018-07-16T14:31:11.099Z,99.80
2018-07-16T14:33:44.041Z,99.60
2018-07-16T14:36:15.128Z,99.50
2018-07-16T14:38:46.159Z,99.00
2018-07-16T14:41:17.493Z,99.90
2018-07-16T14:43:49.796Z,99.90
2018-07-16T14:46:20.699Z,99.90
2018-07-16T14:48:53.405Z,99.90
2018-07-16T14:51:24.389Z,99.90
2018-07-16T14:53:55.044Z,99.90
2018-07-16T14:56:26.949Z,99.90
2018-07-16T14:58:58.927Z,99.90
2018-07-16T15:01:29.919Z,99.00
2018-07-16T15:04:01.507Z,99.10
2018-07-16T15:06:33.840Z,99.20
2018-07-16T15:09:09.363Z,99.40
2018-07-16T15:11:40.511Z,99.90
2018-07-16T15:14:11.941Z,99.40
2018-07-16T15:16:43.628Z,99.10
2018-07-16T15:19:15.634Z,99.40
2018-07-16T15:21:50.958Z,99.50
2018-07-16T15:24:22.402Z,99.40
2018-07-16T15:29:24.159Z,99.50
2018-07-16T15:31:54.879Z,99.00
2018-07-16T15:34:25.834Z,99.00
2018-07-16T15:36:58.474Z,98.60
2018-07-16T15:39:30.211Z,98.00
2018-07-16T15:42:01.571Z,97.70
2018-07-16T15:44:46.923Z,97.80
2018-07-16T15:47:23.660Z,96.90
2018-07-16T15:49:55.354Z,96.50
2018-07-16T15:52:42.257Z,95.70
2018-07-16T15:55:18.527Z,95.30
2018-07-16T15:57:54.937Z,95.00
2018-07-16T16:00:26.936Z,95.60
2018-07-16T16:02:58.309Z,96.00
2018-07-16T16:05:32.591Z,96.80
2018-07-16T16:08:04.604Z,97.00
2018-07-16T16:10:37.819Z,95.10
2018-07-16T16:15:41.709Z,95.00
2018-07-16T16:20:44.729Z,95.30
2018-07-16T16:23:16.102Z,95.70
2018-07-16T16:28:20.899Z,97.00
2018-07-16T16:30:52.294Z,95.90
2018-07-16T16:33:23.169Z,90.40
2018-07-16T16:35:55.602Z,87.70
2018-07-16T16:38:27.279Z,84.90
2018-07-16T16:40:58.878Z,84.00
2018-07-16T16:43:30.915Z,84.10
2018-07-16T16:46:02.800Z,83.70
2018-07-16T16:51:05.659Z,84.90
2018-07-16T16:53:36.728Z,84.50
2018-07-16T16:56:09.157Z,84.70
2018-07-16T16:58:45.543Z,84.80
2018-07-16T17:01:18.282Z,85.80
2018-07-16T17:03:51.601Z,86.90
2018-07-16T17:06:22.948Z,87.40
2018-07-16T17:11:25.242Z,87.50
2018-07-16T17:13:58.174Z,87.60
2018-07-16T17:16:30.504Z,87.40
2018-07-16T17:19:05.462Z,87.50
2018-07-16T17:21:38.691Z,87.70
2018-07-16T17:24:11.862Z,88.20
2018-07-16T17:26:48.188Z,88.60
2018-07-16T17:29:21.713Z,88.10
2018-07-16T17:31:53.989Z,87.80
2018-07-16T17:34:26.458Z,88.70
2018-07-16T17:36:58.685Z,89.10
2018-07-16T17:39:31.701Z,90.00
2018-07-16T17:42:03.819Z,90.00
2018-07-16T17:44:36.618Z,90.00
2018-07-16T17:47:09.856Z,89.90
2018-07-16T17:49:41.122Z,90.40
2018-07-16T17:52:11.978Z,91.20
2018-07-16T17:54:51.279Z,91.50
2018-07-16T17:57:22.089Z,91.20
2018-07-16T18:00:00.031Z,91.30
2018-07-16T18:02:36.539Z,91.30
2018-07-16T18:05:10.491Z,91.30
2018-07-16T18:07:42.924Z,90.90
2018-07-16T18:10:17.585Z,91.20
2018-07-16T18:12:49.091Z,90.90
2018-07-16T18:15:19.984Z,91.00
2018-07-16T18:17:51.396Z,91.50
2018-07-16T18:20:23.141Z,91.90
2018-07-16T18:22:53.994Z,92.40
2018-07-16T18:25:25.213Z,92.60
2018-07-16T18:27:57.126Z,92.90
2018-07-16T18:30:28.349Z,93.20
2018-07-16T18:32:59.883Z,93.50
2018-07-16T18:35:32.212Z,94.00
2018-07-16T18:38:04.560Z,94.00
2018-07-16T18:40:35.845Z,94.70
2018-07-16T18:43:09.317Z,94.80
2018-07-16T18:45:40.857Z,95.60
2018-07-16T18:48:13.074Z,95.80
2018-07-16T18:50:46.085Z,96.40
2018-07-16T18:53:19.599Z,96.40
2018-07-16T18:55:51.297Z,96.80
2018-07-16T18:58:23.315Z,97.00
2018-07-16T19:00:55.640Z,97.40
2018-07-16T19:03:27.944Z,98.10
2018-07-16T19:06:01.708Z,97.70
2018-07-16T19:08:34.687Z,97.70
2018-07-16T19:11:08.544Z,98.00
2018-07-16T19:13:41.846Z,97.90
2018-07-16T19:16:14.052Z,97.80
2018-07-16T19:18:46.575Z,97.80
2018-07-16T19:21:19.345Z,98.30
2018-07-16T19:23:51.214Z,99.00
2018-07-16T19:26:23.430Z,99.80
2018-07-16T19:28:55.199Z,99.90
2018-07-16T19:31:27.752Z,99.90
2018-07-16T19:34:01.084Z,99.90
2018-07-16T19:36:34.472Z,99.90
2018-07-16T19:39:07.828Z,99.90
2018-07-16T19:41:41.236Z,99.90
2018-07-16T20:38:16.023Z,99.90
2018-07-16T20:40:48.791Z,99.90
2018-07-16T20:45:53.484Z,99.90
2018-07-16T20:48:25.747Z,99.90
2018-07-16T20:50:57.669Z,99.90
2018-07-16T20:53:30.101Z,99.90
2018-07-16T20:56:01.680Z,99.90
2018-07-16T20:58:33.485Z,99.90
2018-07-16T21:01:05.361Z,99.90
2018-07-16T21:06:07.727Z,99.90
2018-07-16T21:08:38.376Z,99.90
2018-07-16T21:11:09.615Z,99.90
2018-07-16T21:13:40.703Z,99.90
2018-07-16T21:16:11.859Z,99.90
2018-07-16T21:18:43.021Z,99.90
2018-07-16T21:21:15.964Z,99.90
2018-07-16T21:23:48.515Z,99.90
2018-07-16T21:26:20.304Z,99.90
2018-07-16T21:28:51.150Z,99.90
2018-07-16T21:31:26.045Z,99.90
2018-07-16T21:33:57.022Z,99.90
2018-07-16T21:44:00.316Z,99.90
2018-07-16T21:46:31.259Z,99.90
2018-07-16T21:49:05.296Z,99.90
2018-07-16T21:51:36.223Z,99.90
2018-07-16T21:54:08.896Z,99.90
2018-07-16T21:56:39.867Z,99.90
2018-07-16T21:59:10.563Z,99.90
2018-07-16T22:01:41.790Z,99.90
2018-07-16T22:04:12.499Z,99.90
2018-07-16T22:09:13.422Z,99.90
2018-07-16T22:11:44.942Z,99.90
2018-07-16T22:14:17.677Z,99.90
2018-07-16T22:16:49.005Z,99.90
2018-07-16T22:19:21.109Z,99.90
2018-07-16T22:21:52.849Z,99.90
2018-07-16T22:25:01.288Z,99.90
2018-07-16T22:27:32.140Z,99.90
2018-07-16T22:30:02.747Z,99.90
2018-07-16T22:32:52.557Z,99.90
2018-07-16T22:37:54.416Z,99.90
2018-07-16T22:40:25.991Z,99.90
2018-07-16T22:42:56.761Z,99.90
2018-07-16T22:45:27.678Z,99.90
2018-07-16T22:50:29.085Z,99.90
2018-07-16T22:52:59.656Z,99.90
2018-07-16T22:55:30.353Z,99.90
2018-07-16T22:58:00.976Z,99.90
2018-07-16T23:00:31.678Z,99.90
2018-07-16T23:03:02.371Z,99.90
2018-07-16T23:05:33.443Z,99.90
2018-07-16T23:08:05.026Z,99.90
2018-07-16T23:10:35.653Z,99.90
2018-07-16T23:13:06.210Z,99.90
2018-07-16T23:15:37.156Z,99.90
2018-07-16T23:18:07.798Z,99.90
2018-07-16T23:20:38.337Z,99.90
2018-07-16T23:23:08.731Z,99.90
2018-07-16T23:25:40.029Z,99.90
2018-07-16T23:30:41.740Z,99.90
2018-07-16T23:35:43.278Z,99.90
2018-07-16T23:38:13.767Z,99.90
2018-07-16T23:40:44.547Z,99.90
2018-07-16T23:45:46.701Z,99.90
2018-07-16T23:48:17.389Z,99.90
2018-07-16T23:50:48.134Z,99.90
2018-07-16T23:53:18.790Z,99.90
2018-07-16T23:55:49.446Z,99.90
2018-07-16T23:58:19.833Z,99.90
